LFPG/CDG METAR and TAF weather

Enter ICAO airport designator
Station Type Date Time Source
LFPG METAR 2019/08/24 17:30 UTC NOAA

LFPG 241730Z 09003KT 070V140 CAVOK 29/12 Q1017 NOSIG


Station Type Date Time Source
LFPG Decoded METAR 2019/08/24 17:30 UTC NOAA

Station name not available
Aug 24, 2019 - 01:30 PM EDT / 2019.08.24 1730 UTC
Wind: from the E (090 degrees) at 3 MPH (3 KT) (direction variable):0
Visibility: greater than 7 mile(s):0
Temperature: 84 F (29 C)
Dew Point: 53 F (12 C)
Relative Humidity: 34%
Pressure (altimeter): 30.03 in. Hg (1017 hPa)
ob: LFPG 241730Z 09003KT 070V140 CAVOK 29/12 Q1017 NOSIG
cycle: 17

Station Type Date Time Source
LFPG TAF 2019/08/24 18:21 UTC NOAA

TAF LFPG 241700Z 2418/2524 10005KT CAVOK TX32/2514Z TN18/2504Z

Example: see airport list